sensor_id;sensor_type;location;lat;lon;timestamp;P1;durP1;ratioP1;P2;durP2;ratioP2
80748;SDS011;70145;53.746;9.970;2024-02-21T00:00:49;21.10;;;9.80;;
80748;SDS011;70145;53.746;9.970;2024-02-21T00:03:15;21.58;;;9.93;;
80748;SDS011;70145;53.746;9.970;2024-02-21T00:05:40;17.42;;;8.95;;
80748;SDS011;70145;53.746;9.970;2024-02-21T00:14:26;16.70;;;9.20;;
80748;SDS011;70145;53.746;9.970;2024-02-21T00:16:51;20.73;;;9.32;;
80748;SDS011;70145;53.746;9.970;2024-02-21T00:19:17;23.20;;;10.30;;
80748;SDS011;70145;53.746;9.970;2024-02-21T00:21:42;20.08;;;8.90;;
80748;SDS011;70145;53.746;9.970;2024-02-21T00:24:07;25.17;;;9.75;;
80748;SDS011;70145;53.746;9.970;2024-02-21T00:26:33;20.63;;;10.47;;
80748;SDS011;70145;53.746;9.970;2024-02-21T00:29:01;21.02;;;9.65;;
80748;SDS011;70145;53.746;9.970;2024-02-21T00:31:38;20.63;;;9.85;;
80748;SDS011;70145;53.746;9.970;2024-02-21T00:34:03;20.83;;;9.95;;
80748;SDS011;70145;53.746;9.970;2024-02-21T00:36:29;22.60;;;9.98;;
80748;SDS011;70145;53.746;9.970;2024-02-21T00:38:54;18.13;;;10.98;;
80748;SDS011;70145;53.746;9.970;2024-02-21T00:41:19;16.90;;;9.47;;
80748;SDS011;70145;53.746;9.970;2024-02-21T00:43:44;19.57;;;9.30;;
80748;SDS011;70145;53.746;9.970;2024-02-21T00:46:10;22.92;;;10.68;;
80748;SDS011;70145;53.746;9.970;2024-02-21T00:48:35;21.67;;;10.18;;
80748;SDS011;70145;53.746;9.970;2024-02-21T00:51:00;21.10;;;11.17;;
80748;SDS011;70145;53.746;9.970;2024-02-21T00:53:26;24.37;;;9.83;;
80748;SDS011;70145;53.746;9.970;2024-02-21T00:55:53;19.98;;;9.98;;
80748;SDS011;70145;53.746;9.970;2024-02-21T01:01:12;22.13;;;10.55;;
80748;SDS011;70145;53.746;9.970;2024-02-21T01:03:39;20.58;;;10.18;;
80748;SDS011;70145;53.746;9.970;2024-02-21T01:06:04;23.65;;;10.48;;
80748;SDS011;70145;53.746;9.970;2024-02-21T01:08:30;26.00;;;11.47;;
80748;SDS011;70145;53.746;9.970;2024-02-21T01:10:55;23.07;;;10.10;;
80748;SDS011;70145;53.746;9.970;2024-02-21T01:13:28;19.97;;;9.53;;
80748;SDS011;70145;53.746;9.970;2024-02-21T01:16:25;25.58;;;10.70;;
80748;SDS011;70145;53.746;9.970;2024-02-21T01:22:21;25.75;;;11.52;;
80748;SDS011;70145;53.746;9.970;2024-02-21T01:24:46;23.02;;;10.30;;
80748;SDS011;70145;53.746;9.970;2024-02-21T01:27:29;22.00;;;10.17;;
80748;SDS011;70145;53.746;9.970;2024-02-21T01:30:06;22.75;;;11.00;;
80748;SDS011;70145;53.746;9.970;2024-02-21T01:36:14;22.13;;;10.60;;
80748;SDS011;70145;53.746;9.970;2024-02-21T01:39:07;18.27;;;10.18;;
80748;SDS011;70145;53.746;9.970;2024-02-21T01:41:33;22.67;;;10.77;;
80748;SDS011;70145;53.746;9.970;2024-02-21T01:51:03;19.10;;;9.13;;
80748;SDS011;70145;53.746;9.970;2024-02-21T01:53:30;22.65;;;10.32;;
80748;SDS011;70145;53.746;9.970;2024-02-21T01:56:00;18.92;;;9.70;;
80748;SDS011;70145;53.746;9.970;2024-02-21T01:58:26;22.48;;;10.73;;
80748;SDS011;70145;53.746;9.970;2024-02-21T02:04:21;20.73;;;9.57;;
80748;SDS011;70145;53.746;9.970;2024-02-21T02:07:36;17.42;;;9.07;;
80748;SDS011;70145;53.746;9.970;2024-02-21T02:14:03;18.38;;;8.98;;
80748;SDS011;70145;53.746;9.970;2024-02-21T02:16:28;17.13;;;9.35;;
80748;SDS011;70145;53.746;9.970;2024-02-21T02:33:21;15.98;;;9.10;;
80748;SDS011;70145;53.746;9.970;2024-02-21T02:35:46;17.00;;;9.40;;
80748;SDS011;70145;53.746;9.970;2024-02-21T02:48:15;17.23;;;8.93;;
80748;SDS011;70145;53.746;9.970;2024-02-21T02:50:40;16.77;;;9.45;;
80748;SDS011;70145;53.746;9.970;2024-02-21T02:53:54;19.85;;;9.95;;
80748;SDS011;70145;53.746;9.970;2024-02-21T02:56:05;23.20;;;10.82;;
80748;SDS011;70145;53.746;9.970;2024-02-21T02:59:00;17.73;;;9.60;;
80748;SDS011;70145;53.746;9.970;2024-02-21T03:01:26;19.42;;;10.23;;
80748;SDS011;70145;53.746;9.970;2024-02-21T03:03:52;18.33;;;10.13;;
80748;SDS011;70145;53.746;9.970;2024-02-21T03:06:23;20.23;;;11.02;;
80748;SDS011;70145;53.746;9.970;2024-02-21T03:09:35;17.40;;;10.55;;
80748;SDS011;70145;53.746;9.970;2024-02-21T03:12:00;21.27;;;10.63;;
80748;SDS011;70145;53.746;9.970;2024-02-21T03:14:30;19.80;;;9.90;;
80748;SDS011;70145;53.746;9.970;2024-02-21T03:16:57;22.75;;;10.43;;
80748;SDS011;70145;53.746;9.970;2024-02-21T03:19:23;19.65;;;9.88;;
80748;SDS011;70145;53.746;9.970;2024-02-21T03:21:49;21.93;;;11.03;;
80748;SDS011;70145;53.746;9.970;2024-02-21T03:24:18;20.35;;;10.82;;
80748;SDS011;70145;53.746;9.970;2024-02-21T03:26:43;21.95;;;11.55;;
80748;SDS011;70145;53.746;9.970;2024-02-21T03:46:40;21.17;;;10.50;;
80748;SDS011;70145;53.746;9.970;2024-02-21T03:49:13;24.00;;;11.45;;
80748;SDS011;70145;53.746;9.970;2024-02-21T03:58:11;18.43;;;10.60;;
80748;SDS011;70145;53.746;9.970;2024-02-21T04:05:09;20.33;;;9.90;;
80748;SDS011;70145;53.746;9.970;2024-02-21T04:14:53;16.00;;;8.73;;
80748;SDS011;70145;53.746;9.970;2024-02-21T04:17:21;16.35;;;10.25;;
80748;SDS011;70145;53.746;9.970;2024-02-21T04:26:36;20.38;;;9.02;;
80748;SDS011;70145;53.746;9.970;2024-02-21T04:29:07;14.07;;;8.73;;
80748;SDS011;70145;53.746;9.970;2024-02-21T04:31:56;17.42;;;7.95;;
80748;SDS011;70145;53.746;9.970;2024-02-21T04:52:05;12.07;;;6.15;;
80748;SDS011;70145;53.746;9.970;2024-02-21T04:58:22;10.00;;;5.82;;
80748;SDS011;70145;53.746;9.970;2024-02-21T05:00:50;9.60;;;5.38;;
80748;SDS011;70145;53.746;9.970;2024-02-21T05:03:31;10.77;;;6.22;;
80748;SDS011;70145;53.746;9.970;2024-02-21T05:06:37;9.35;;;5.60;;
80748;SDS011;70145;53.746;9.970;2024-02-21T05:09:04;9.20;;;5.68;;
80748;SDS011;70145;53.746;9.970;2024-02-21T05:25:52;7.72;;;5.32;;
80748;SDS011;70145;53.746;9.970;2024-02-21T05:28:31;8.20;;;5.15;;
80748;SDS011;70145;53.746;9.970;2024-02-21T05:31:18;6.88;;;4.68;;
80748;SDS011;70145;53.746;9.970;2024-02-21T05:33:46;8.27;;;4.60;;
80748;SDS011;70145;53.746;9.970;2024-02-21T05:36:57;7.47;;;4.55;;
80748;SDS011;70145;53.746;9.970;2024-02-21T05:39:36;6.13;;;4.10;;
80748;SDS011;70145;53.746;9.970;2024-02-21T05:42:02;6.13;;;3.83;;
80748;SDS011;70145;53.746;9.970;2024-02-21T05:44:27;6.57;;;3.72;;
80748;SDS011;70145;53.746;9.970;2024-02-21T05:46:52;6.45;;;3.53;;
80748;SDS011;70145;53.746;9.970;2024-02-21T05:49:18;6.60;;;3.97;;
80748;SDS011;70145;53.746;9.970;2024-02-21T05:51:43;4.93;;;3.20;;
80748;SDS011;70145;53.746;9.970;2024-02-21T05:54:08;5.63;;;3.30;;
80748;SDS011;70145;53.746;9.970;2024-02-21T05:56:34;4.70;;;2.97;;
80748;SDS011;70145;53.746;9.970;2024-02-21T05:58:59;4.78;;;3.20;;
80748;SDS011;70145;53.746;9.970;2024-02-21T06:01:25;4.70;;;3.07;;
80748;SDS011;70145;53.746;9.970;2024-02-21T06:03:50;4.22;;;3.13;;
80748;SDS011;70145;53.746;9.970;2024-02-21T06:06:16;4.55;;;3.03;;
80748;SDS011;70145;53.746;9.970;2024-02-21T06:08:41;3.35;;;2.22;;
80748;SDS011;70145;53.746;9.970;2024-02-21T06:11:06;5.28;;;2.60;;
80748;SDS011;70145;53.746;9.970;2024-02-21T06:13:32;6.25;;;2.90;;
80748;SDS011;70145;53.746;9.970;2024-02-21T06:15:57;3.43;;;1.90;;
80748;SDS011;70145;53.746;9.970;2024-02-21T06:18:22;4.00;;;1.55;;
80748;SDS011;70145;53.746;9.970;2024-02-21T06:20:48;3.17;;;1.40;;
80748;SDS011;70145;53.746;9.970;2024-02-21T06:23:15;2.22;;;1.50;;
80748;SDS011;70145;53.746;9.970;2024-02-21T06:25:41;2.30;;;1.33;;
80748;SDS011;70145;53.746;9.970;2024-02-21T06:28:07;3.13;;;1.60;;
80748;SDS011;70145;53.746;9.970;2024-02-21T06:30:32;2.77;;;1.73;;
80748;SDS011;70145;53.746;9.970;2024-02-21T06:32:58;2.25;;;1.42;;
80748;SDS011;70145;53.746;9.970;2024-02-21T06:35:24;3.60;;;1.20;;
80748;SDS011;70145;53.746;9.970;2024-02-21T06:37:50;3.70;;;1.45;;
80748;SDS011;70145;53.746;9.970;2024-02-21T06:40:21;3.28;;;1.10;;
80748;SDS011;70145;53.746;9.970;2024-02-21T06:42:47;2.03;;;0.90;;
80748;SDS011;70145;53.746;9.970;2024-02-21T06:45:12;1.80;;;0.95;;
80748;SDS011;70145;53.746;9.970;2024-02-21T06:47:38;2.00;;;1.30;;
80748;SDS011;70145;53.746;9.970;2024-02-21T06:50:03;2.03;;;1.10;;
80748;SDS011;70145;53.746;9.970;2024-02-21T06:52:29;1.73;;;1.27;;
80748;SDS011;70145;53.746;9.970;2024-02-21T06:54:55;2.65;;;1.30;;
80748;SDS011;70145;53.746;9.970;2024-02-21T06:57:21;2.17;;;1.08;;
80748;SDS011;70145;53.746;9.970;2024-02-21T06:59:46;2.00;;;1.10;;
80748;SDS011;70145;53.746;9.970;2024-02-21T07:02:12;1.60;;;1.10;;
80748;SDS011;70145;53.746;9.970;2024-02-21T07:04:37;2.40;;;1.13;;
80748;SDS011;70145;53.746;9.970;2024-02-21T07:07:02;2.00;;;1.20;;
80748;SDS011;70145;53.746;9.970;2024-02-21T07:09:28;2.17;;;1.40;;
80748;SDS011;70145;53.746;9.970;2024-02-21T07:11:56;3.20;;;1.25;;
80748;SDS011;70145;53.746;9.970;2024-02-21T07:14:22;2.85;;;1.52;;
80748;SDS011;70145;53.746;9.970;2024-02-21T07:16:47;3.60;;;1.60;;
80748;SDS011;70145;53.746;9.970;2024-02-21T07:19:12;2.80;;;1.50;;
80748;SDS011;70145;53.746;9.970;2024-02-21T07:21:38;3.50;;;1.37;;
80748;SDS011;70145;53.746;9.970;2024-02-21T07:24:06;4.65;;;1.65;;
80748;SDS011;70145;53.746;9.970;2024-02-21T07:26:32;2.17;;;1.10;;
80748;SDS011;70145;53.746;9.970;2024-02-21T07:28:58;2.38;;;1.73;;
80748;SDS011;70145;53.746;9.970;2024-02-21T07:31:23;3.37;;;2.10;;
80748;SDS011;70145;53.746;9.970;2024-02-21T07:33:48;3.73;;;2.30;;
80748;SDS011;70145;53.746;9.970;2024-02-21T07:36:14;3.78;;;2.08;;
80748;SDS011;70145;53.746;9.970;2024-02-21T07:38:40;3.40;;;1.85;;
80748;SDS011;70145;53.746;9.970;2024-02-21T07:41:05;4.75;;;2.20;;
80748;SDS011;70145;53.746;9.970;2024-02-21T07:43:31;7.43;;;3.00;;
80748;SDS011;70145;53.746;9.970;2024-02-21T07:45:56;5.63;;;2.00;;
80748;SDS011;70145;53.746;9.970;2024-02-21T07:48:21;5.23;;;2.00;;
80748;SDS011;70145;53.746;9.970;2024-02-21T07:50:51;5.22;;;1.88;;
80748;SDS011;70145;53.746;9.970;2024-02-21T07:53:17;8.43;;;2.85;;
80748;SDS011;70145;53.746;9.970;2024-02-21T07:55:42;4.45;;;1.88;;
80748;SDS011;70145;53.746;9.970;2024-02-21T07:58:07;6.97;;;1.90;;
80748;SDS011;70145;53.746;9.970;2024-02-21T08:00:33;5.38;;;1.75;;
80748;SDS011;70145;53.746;9.970;2024-02-21T08:02:58;7.37;;;2.23;;
80748;SDS011;70145;53.746;9.970;2024-02-21T08:05:24;6.80;;;1.83;;
80748;SDS011;70145;53.746;9.970;2024-02-21T08:07:49;7.72;;;2.60;;
80748;SDS011;70145;53.746;9.970;2024-02-21T08:10:14;9.45;;;2.13;;
80748;SDS011;70145;53.746;9.970;2024-02-21T08:12:40;7.13;;;3.10;;
80748;SDS011;70145;53.746;9.970;2024-02-21T08:15:05;7.95;;;2.30;;
80748;SDS011;70145;53.746;9.970;2024-02-21T08:17:33;8.13;;;2.38;;
80748;SDS011;70145;53.746;9.970;2024-02-21T08:19:59;9.20;;;2.95;;
80748;SDS011;70145;53.746;9.970;2024-02-21T08:22:24;9.82;;;2.05;;
80748;SDS011;70145;53.746;9.970;2024-02-21T08:24:50;8.48;;;1.83;;
80748;SDS011;70145;53.746;9.970;2024-02-21T08:27:15;12.10;;;1.98;;
80748;SDS011;70145;53.746;9.970;2024-02-21T08:29:40;9.23;;;1.70;;
80748;SDS011;70145;53.746;9.970;2024-02-21T08:32:05;10.67;;;2.50;;
80748;SDS011;70145;53.746;9.970;2024-02-21T08:34:31;8.82;;;1.73;;
80748;SDS011;70145;53.746;9.970;2024-02-21T08:36:59;8.45;;;2.08;;
80748;SDS011;70145;53.746;9.970;2024-02-21T08:39:24;8.20;;;2.00;;
80748;SDS011;70145;53.746;9.970;2024-02-21T08:41:49;11.65;;;3.60;;
80748;SDS011;70145;53.746;9.970;2024-02-21T08:44:16;5.70;;;2.47;;
80748;SDS011;70145;53.746;9.970;2024-02-21T08:46:41;9.35;;;2.22;;
80748;SDS011;70145;53.746;9.970;2024-02-21T08:49:06;9.52;;;1.80;;
80748;SDS011;70145;53.746;9.970;2024-02-21T08:51:32;5.03;;;2.20;;
80748;SDS011;70145;53.746;9.970;2024-02-21T08:53:57;11.50;;;1.70;;
80748;SDS011;70145;53.746;9.970;2024-02-21T08:56:23;8.75;;;1.88;;
80748;SDS011;70145;53.746;9.970;2024-02-21T08:58:49;8.05;;;2.70;;
80748;SDS011;70145;53.746;9.970;2024-02-21T09:01:15;8.20;;;1.48;;
80748;SDS011;70145;53.746;9.970;2024-02-21T09:03:40;10.77;;;2.78;;
80748;SDS011;70145;53.746;9.970;2024-02-21T09:06:05;9.20;;;1.80;;
80748;SDS011;70145;53.746;9.970;2024-02-21T09:08:31;7.38;;;1.60;;
80748;SDS011;70145;53.746;9.970;2024-02-21T09:10:57;7.47;;;2.22;;
80748;SDS011;70145;53.746;9.970;2024-02-21T09:13:23;7.43;;;1.55;;
80748;SDS011;70145;53.746;9.970;2024-02-21T09:15:49;8.60;;;1.85;;
80748;SDS011;70145;53.746;9.970;2024-02-21T09:18:14;9.80;;;1.65;;
80748;SDS011;70145;53.746;9.970;2024-02-21T09:20:40;7.63;;;1.67;;
80748;SDS011;70145;53.746;9.970;2024-02-21T09:23:05;5.70;;;1.90;;
80748;SDS011;70145;53.746;9.970;2024-02-21T09:25:31;9.88;;;2.17;;
80748;SDS011;70145;53.746;9.970;2024-02-21T09:27:56;13.40;;;1.50;;
80748;SDS011;70145;53.746;9.970;2024-02-21T09:30:23;8.10;;;2.05;;
80748;SDS011;70145;53.746;9.970;2024-02-21T09:32:49;6.88;;;1.67;;
80748;SDS011;70145;53.746;9.970;2024-02-21T09:35:15;6.70;;;2.00;;
80748;SDS011;70145;53.746;9.970;2024-02-21T09:37:40;11.98;;;1.95;;
80748;SDS011;70145;53.746;9.970;2024-02-21T09:40:06;7.32;;;1.65;;
80748;SDS011;70145;53.746;9.970;2024-02-21T09:42:38;9.82;;;2.30;;
80748;SDS011;70145;53.746;9.970;2024-02-21T09:45:11;8.70;;;2.10;;
80748;SDS011;70145;53.746;9.970;2024-02-21T09:50:22;10.80;;;1.98;;
80748;SDS011;70145;53.746;9.970;2024-02-21T09:52:49;8.55;;;1.20;;
80748;SDS011;70145;53.746;9.970;2024-02-21T09:55:16;4.40;;;1.38;;
80748;SDS011;70145;53.746;9.970;2024-02-21T09:57:43;9.23;;;1.75;;
80748;SDS011;70145;53.746;9.970;2024-02-21T10:00:09;6.00;;;1.48;;
80748;SDS011;70145;53.746;9.970;2024-02-21T10:02:35;9.57;;;1.75;;
80748;SDS011;70145;53.746;9.970;2024-02-21T10:05:01;8.00;;;1.55;;
80748;SDS011;70145;53.746;9.970;2024-02-21T10:07:29;4.93;;;1.63;;
80748;SDS011;70145;53.746;9.970;2024-02-21T10:10:01;8.90;;;2.25;;
80748;SDS011;70145;53.746;9.970;2024-02-21T10:12:27;9.00;;;2.20;;
80748;SDS011;70145;53.746;9.970;2024-02-21T10:15:05;6.60;;;1.98;;
80748;SDS011;70145;53.746;9.970;2024-02-21T10:17:34;9.52;;;2.00;;
80748;SDS011;70145;53.746;9.970;2024-02-21T10:20:10;4.90;;;1.95;;
80748;SDS011;70145;53.746;9.970;2024-02-21T10:22:37;5.13;;;1.88;;
80748;SDS011;70145;53.746;9.970;2024-02-21T10:25:10;6.25;;;2.00;;
80748;SDS011;70145;53.746;9.970;2024-02-21T10:27:37;6.40;;;1.45;;
80748;SDS011;70145;53.746;9.970;2024-02-21T10:30:13;5.85;;;1.73;;
80748;SDS011;70145;53.746;9.970;2024-02-21T10:32:52;6.15;;;1.73;;
80748;SDS011;70145;53.746;9.970;2024-02-21T10:35:25;4.72;;;1.50;;
80748;SDS011;70145;53.746;9.970;2024-02-21T10:37:59;2.38;;;1.20;;
80748;SDS011;70145;53.746;9.970;2024-02-21T10:40:28;4.18;;;1.60;;
80748;SDS011;70145;53.746;9.970;2024-02-21T10:42:56;4.38;;;1.88;;
80748;SDS011;70145;53.746;9.970;2024-02-21T10:45:35;3.60;;;1.05;;
80748;SDS011;70145;53.746;9.970;2024-02-21T10:48:13;4.45;;;0.88;;
80748;SDS011;70145;53.746;9.970;2024-02-21T10:51:25;6.00;;;1.30;;
80748;SDS011;70145;53.746;9.970;2024-02-21T10:56:36;4.63;;;1.25;;
80748;SDS011;70145;53.746;9.970;2024-02-21T10:59:05;2.45;;;1.15;;
80748;SDS011;70145;53.746;9.970;2024-02-21T11:01:31;4.07;;;1.70;;
80748;SDS011;70145;53.746;9.970;2024-02-21T11:03:58;3.28;;;1.20;;
80748;SDS011;70145;53.746;9.970;2024-02-21T11:06:26;4.55;;;1.60;;
80748;SDS011;70145;53.746;9.970;2024-02-21T11:09:00;3.20;;;1.67;;
80748;SDS011;70145;53.746;9.970;2024-02-21T11:11:30;4.82;;;2.28;;
80748;SDS011;70145;53.746;9.970;2024-02-21T11:16:42;5.38;;;2.90;;
80748;SDS011;70145;53.746;9.970;2024-02-21T11:19:08;5.43;;;2.60;;
80748;SDS011;70145;53.746;9.970;2024-02-21T11:21:36;4.82;;;3.03;;
80748;SDS011;70145;53.746;9.970;2024-02-21T11:24:02;6.25;;;3.20;;
80748;SDS011;70145;53.746;9.970;2024-02-21T11:26:29;5.32;;;2.97;;
80748;SDS011;70145;53.746;9.970;2024-02-21T11:28:56;5.90;;;4.10;;
80748;SDS011;70145;53.746;9.970;2024-02-21T11:31:24;6.82;;;3.95;;
80748;SDS011;70145;53.746;9.970;2024-02-21T11:33:52;7.07;;;4.15;;
80748;SDS011;70145;53.746;9.970;2024-02-21T11:36:24;7.88;;;4.07;;
80748;SDS011;70145;53.746;9.970;2024-02-21T11:38:51;8.10;;;4.32;;
80748;SDS011;70145;53.746;9.970;2024-02-21T11:41:17;7.43;;;4.13;;
80748;SDS011;70145;53.746;9.970;2024-02-21T11:43:42;8.13;;;5.37;;
80748;SDS011;70145;53.746;9.970;2024-02-21T11:46:07;12.03;;;5.47;;
80748;SDS011;70145;53.746;9.970;2024-02-21T11:48:34;10.27;;;5.20;;
80748;SDS011;70145;53.746;9.970;2024-02-21T11:50:59;11.15;;;5.80;;
80748;SDS011;70145;53.746;9.970;2024-02-21T11:53:26;13.18;;;8.25;;
80748;SDS011;70145;53.746;9.970;2024-02-21T11:55:55;12.85;;;7.60;;
80748;SDS011;70145;53.746;9.970;2024-02-21T11:58:21;16.23;;;8.55;;
80748;SDS011;70145;53.746;9.970;2024-02-21T12:00:47;13.88;;;8.27;;
80748;SDS011;70145;53.746;9.970;2024-02-21T12:03:14;17.35;;;8.70;;
80748;SDS011;70145;53.746;9.970;2024-02-21T12:05:40;14.32;;;8.80;;
80748;SDS011;70145;53.746;9.970;2024-02-21T12:08:06;17.90;;;9.88;;
80748;SDS011;70145;53.746;9.970;2024-02-21T12:10:32;20.50;;;10.80;;
80748;SDS011;70145;53.746;9.970;2024-02-21T12:13:07;18.92;;;10.70;;
80748;SDS011;70145;53.746;9.970;2024-02-21T12:15:35;17.77;;;9.88;;
80748;SDS011;70145;53.746;9.970;2024-02-21T12:18:01;15.38;;;9.45;;
80748;SDS011;70145;53.746;9.970;2024-02-21T12:20:26;17.38;;;10.43;;
80748;SDS011;70145;53.746;9.970;2024-02-21T12:22:52;15.38;;;9.68;;
80748;SDS011;70145;53.746;9.970;2024-02-21T12:25:19;15.85;;;9.65;;
80748;SDS011;70145;53.746;9.970;2024-02-21T12:27:51;13.48;;;8.25;;
80748;SDS011;70145;53.746;9.970;2024-02-21T12:30:16;14.40;;;8.60;;
80748;SDS011;70145;53.746;9.970;2024-02-21T12:32:42;12.57;;;7.85;;
80748;SDS011;70145;53.746;9.970;2024-02-21T12:35:08;15.20;;;7.93;;
80748;SDS011;70145;53.746;9.970;2024-02-21T12:37:33;11.93;;;7.65;;
80748;SDS011;70145;53.746;9.970;2024-02-21T12:39:59;13.13;;;6.97;;
80748;SDS011;70145;53.746;9.970;2024-02-21T12:42:24;12.30;;;6.20;;
80748;SDS011;70145;53.746;9.970;2024-02-21T12:44:51;16.38;;;7.60;;
80748;SDS011;70145;53.746;9.970;2024-02-21T12:47:17;11.80;;;6.90;;
80748;SDS011;70145;53.746;9.970;2024-02-21T12:49:44;12.02;;;7.25;;
80748;SDS011;70145;53.746;9.970;2024-02-21T12:52:10;14.20;;;6.90;;
80748;SDS011;70145;53.746;9.970;2024-02-21T12:54:36;13.52;;;7.35;;
80748;SDS011;70145;53.746;9.970;2024-02-21T12:57:01;11.87;;;6.97;;
80748;SDS011;70145;53.746;9.970;2024-02-21T12:59:28;15.90;;;7.35;;
80748;SDS011;70145;53.746;9.970;2024-02-21T13:01:54;12.65;;;7.18;;
80748;SDS011;70145;53.746;9.970;2024-02-21T13:04:19;12.00;;;7.30;;
80748;SDS011;70145;53.746;9.970;2024-02-21T13:06:46;8.65;;;5.53;;
80748;SDS011;70145;53.746;9.970;2024-02-21T13:09:12;12.40;;;6.72;;
80748;SDS011;70145;53.746;9.970;2024-02-21T13:11:38;10.45;;;6.72;;
80748;SDS011;70145;53.746;9.970;2024-02-21T13:14:05;13.50;;;6.88;;
80748;SDS011;70145;53.746;9.970;2024-02-21T13:16:30;12.75;;;6.97;;
80748;SDS011;70145;53.746;9.970;2024-02-21T13:18:56;13.75;;;7.38;;
80748;SDS011;70145;53.746;9.970;2024-02-21T13:21:21;13.93;;;7.70;;
80748;SDS011;70145;53.746;9.970;2024-02-21T13:23:46;11.95;;;6.32;;
80748;SDS011;70145;53.746;9.970;2024-02-21T13:26:12;11.15;;;6.53;;
80748;SDS011;70145;53.746;9.970;2024-02-21T13:28:37;13.15;;;6.65;;
80748;SDS011;70145;53.746;9.970;2024-02-21T13:31:03;16.13;;;6.55;;
80748;SDS011;70145;53.746;9.970;2024-02-21T13:33:28;10.38;;;6.13;;
80748;SDS011;70145;53.746;9.970;2024-02-21T13:35:54;12.02;;;6.22;;
80748;SDS011;70145;53.746;9.970;2024-02-21T13:38:19;13.13;;;5.97;;
80748;SDS011;70145;53.746;9.970;2024-02-21T13:40:44;12.77;;;7.15;;
80748;SDS011;70145;53.746;9.970;2024-02-21T13:43:10;12.13;;;6.80;;
80748;SDS011;70145;53.746;9.970;2024-02-21T13:45:35;15.65;;;7.07;;
80748;SDS011;70145;53.746;9.970;2024-02-21T13:48:00;10.60;;;6.13;;
80748;SDS011;70145;53.746;9.970;2024-02-21T13:50:29;12.40;;;5.97;;
80748;SDS011;70145;53.746;9.970;2024-02-21T13:52:56;12.20;;;7.25;;
80748;SDS011;70145;53.746;9.970;2024-02-21T13:55:21;12.53;;;6.03;;
80748;SDS011;70145;53.746;9.970;2024-02-21T13:57:53;12.20;;;6.78;;
80748;SDS011;70145;53.746;9.970;2024-02-21T14:00:18;9.20;;;5.22;;
80748;SDS011;70145;53.746;9.970;2024-02-21T14:02:45;13.73;;;6.43;;
80748;SDS011;70145;53.746;9.970;2024-02-21T14:05:10;11.05;;;6.18;;
80748;SDS011;70145;53.746;9.970;2024-02-21T14:07:36;12.23;;;6.35;;
80748;SDS011;70145;53.746;9.970;2024-02-21T14:10:01;11.33;;;6.67;;
80748;SDS011;70145;53.746;9.970;2024-02-21T14:12:28;14.63;;;6.32;;
80748;SDS011;70145;53.746;9.970;2024-02-21T14:14:53;9.90;;;6.00;;
80748;SDS011;70145;53.746;9.970;2024-02-21T14:17:20;10.18;;;5.57;;
80748;SDS011;70145;53.746;9.970;2024-02-21T14:19:45;10.10;;;5.40;;
80748;SDS011;70145;53.746;9.970;2024-02-21T14:22:10;10.33;;;6.40;;
80748;SDS011;70145;53.746;9.970;2024-02-21T14:24:36;13.90;;;6.20;;
80748;SDS011;70145;53.746;9.970;2024-02-21T14:27:02;12.45;;;5.65;;
80748;SDS011;70145;53.746;9.970;2024-02-21T14:29:28;11.30;;;6.15;;
80748;SDS011;70145;53.746;9.970;2024-02-21T14:31:54;8.98;;;5.28;;
80748;SDS011;70145;53.746;9.970;2024-02-21T14:34:19;12.73;;;6.88;;
80748;SDS011;70145;53.746;9.970;2024-02-21T14:36:45;10.02;;;6.10;;
80748;SDS011;70145;53.746;9.970;2024-02-21T14:39:10;9.70;;;5.10;;
80748;SDS011;70145;53.746;9.970;2024-02-21T14:41:35;9.37;;;5.13;;
80748;SDS011;70145;53.746;9.970;2024-02-21T14:44:00;11.20;;;6.43;;
80748;SDS011;70145;53.746;9.970;2024-02-21T14:46:28;11.85;;;6.40;;
80748;SDS011;70145;53.746;9.970;2024-02-21T14:48:54;11.13;;;5.40;;
80748;SDS011;70145;53.746;9.970;2024-02-21T14:51:20;11.82;;;6.28;;
80748;SDS011;70145;53.746;9.970;2024-02-21T14:53:45;12.57;;;6.30;;
80748;SDS011;70145;53.746;9.970;2024-02-21T14:56:15;13.88;;;5.72;;
80748;SDS011;70145;53.746;9.970;2024-02-21T14:58:41;12.27;;;5.85;;
80748;SDS011;70145;53.746;9.970;2024-02-21T15:01:07;9.63;;;5.82;;
80748;SDS011;70145;53.746;9.970;2024-02-21T15:03:33;10.48;;;5.90;;
80748;SDS011;70145;53.746;9.970;2024-02-21T15:05:58;13.63;;;6.00;;
80748;SDS011;70145;53.746;9.970;2024-02-21T15:08:25;12.18;;;6.18;;
80748;SDS011;70145;53.746;9.970;2024-02-21T15:10:52;9.48;;;5.57;;
80748;SDS011;70145;53.746;9.970;2024-02-21T15:13:18;10.63;;;6.18;;
80748;SDS011;70145;53.746;9.970;2024-02-21T15:15:43;9.97;;;5.67;;
80748;SDS011;70145;53.746;9.970;2024-02-21T15:18:08;9.03;;;5.77;;
80748;SDS011;70145;53.746;9.970;2024-02-21T15:20:33;9.70;;;5.10;;
80748;SDS011;70145;53.746;9.970;2024-02-21T15:22:59;9.63;;;5.13;;
80748;SDS011;70145;53.746;9.970;2024-02-21T15:25:25;7.82;;;4.95;;
80748;SDS011;70145;53.746;9.970;2024-02-21T15:27:51;10.55;;;5.38;;
80748;SDS011;70145;53.746;9.970;2024-02-21T15:30:16;6.82;;;4.95;;
80748;SDS011;70145;53.746;9.970;2024-02-21T15:32:42;8.52;;;5.40;;
80748;SDS011;70145;53.746;9.970;2024-02-21T15:35:10;6.82;;;4.20;;
80748;SDS011;70145;53.746;9.970;2024-02-21T15:37:36;6.82;;;4.85;;
80748;SDS011;70145;53.746;9.970;2024-02-21T15:40:01;7.05;;;4.43;;
80748;SDS011;70145;53.746;9.970;2024-02-21T15:42:27;8.57;;;4.47;;
80748;SDS011;70145;53.746;9.970;2024-02-21T15:44:54;6.82;;;4.53;;
80748;SDS011;70145;53.746;9.970;2024-02-21T15:47:20;10.13;;;4.28;;
80748;SDS011;70145;53.746;9.970;2024-02-21T15:49:48;6.85;;;4.43;;
80748;SDS011;70145;53.746;9.970;2024-02-21T15:52:14;8.73;;;4.93;;
80748;SDS011;70145;53.746;9.970;2024-02-21T15:54:39;5.40;;;4.03;;
80748;SDS011;70145;53.746;9.970;2024-02-21T15:57:04;11.40;;;4.67;;
80748;SDS011;70145;53.746;9.970;2024-02-21T15:59:32;10.13;;;5.18;;
80748;SDS011;70145;53.746;9.970;2024-02-21T16:01:57;9.20;;;4.22;;
80748;SDS011;70145;53.746;9.970;2024-02-21T16:04:25;7.18;;;4.60;;
80748;SDS011;70145;53.746;9.970;2024-02-21T16:06:51;7.38;;;4.07;;
80748;SDS011;70145;53.746;9.970;2024-02-21T16:09:16;6.70;;;4.13;;
80748;SDS011;70145;53.746;9.970;2024-02-21T16:11:42;5.38;;;4.30;;
80748;SDS011;70145;53.746;9.970;2024-02-21T16:14:07;6.77;;;4.37;;
80748;SDS011;70145;53.746;9.970;2024-02-21T16:16:32;9.20;;;3.97;;
80748;SDS011;70145;53.746;9.970;2024-02-21T16:18:58;10.00;;;5.40;;
80748;SDS011;70145;53.746;9.970;2024-02-21T16:21:23;7.22;;;4.45;;
80748;SDS011;70145;53.746;9.970;2024-02-21T16:23:49;9.07;;;4.50;;
80748;SDS011;70145;53.746;9.970;2024-02-21T16:26:14;5.67;;;3.63;;
80748;SDS011;70145;53.746;9.970;2024-02-21T16:28:39;11.47;;;4.93;;
80748;SDS011;70145;53.746;9.970;2024-02-21T16:31:05;9.90;;;5.10;;
80748;SDS011;70145;53.746;9.970;2024-02-21T16:33:31;9.68;;;4.28;;
80748;SDS011;70145;53.746;9.970;2024-02-21T16:35:56;5.43;;;4.00;;
80748;SDS011;70145;53.746;9.970;2024-02-21T16:38:22;5.55;;;4.03;;
80748;SDS011;70145;53.746;9.970;2024-02-21T16:40:48;4.78;;;3.83;;
80748;SDS011;70145;53.746;9.970;2024-02-21T16:43:13;5.20;;;3.88;;
80748;SDS011;70145;53.746;9.970;2024-02-21T16:45:40;6.03;;;3.73;;
80748;SDS011;70145;53.746;9.970;2024-02-21T16:48:05;6.55;;;3.28;;
80748;SDS011;70145;53.746;9.970;2024-02-21T16:50:31;7.75;;;3.97;;
80748;SDS011;70145;53.746;9.970;2024-02-21T16:52:56;5.88;;;3.75;;
80748;SDS011;70145;53.746;9.970;2024-02-21T16:55:21;5.90;;;3.90;;
80748;SDS011;70145;53.746;9.970;2024-02-21T16:57:47;5.93;;;3.70;;
80748;SDS011;70145;53.746;9.970;2024-02-21T17:00:12;6.93;;;4.47;;
80748;SDS011;70145;53.746;9.970;2024-02-21T17:02:41;5.60;;;3.88;;
80748;SDS011;70145;53.746;9.970;2024-02-21T17:05:08;4.30;;;3.15;;